createdAt,value
2023-02-18T00:02:34.345Z,1.50
2023-02-18T00:07:38.792Z,1.00
2023-02-18T00:12:43.038Z,0.80
2023-02-18T00:17:46.305Z,0.90
2023-02-18T00:22:49.641Z,1.00
2023-02-18T00:27:52.909Z,0.80
2023-02-18T00:32:58.588Z,0.80
2023-02-18T00:38:01.917Z,0.80
2023-02-18T00:43:05.266Z,0.90
2023-02-18T00:48:08.490Z,0.70
2023-02-18T00:53:11.939Z,1.10
2023-02-18T00:58:15.757Z,0.50
2023-02-18T01:03:19.159Z,0.60
2023-02-18T01:08:23.028Z,1.00
2023-02-18T01:13:27.636Z,0.60
2023-02-18T01:18:31.550Z,0.80
2023-02-18T01:23:37.127Z,0.70
2023-02-18T01:28:41.882Z,0.60
2023-02-18T01:33:45.235Z,0.80
2023-02-18T01:38:48.620Z,0.70
2023-02-18T01:44:15.654Z,0.70
2023-02-18T01:49:27.317Z,0.80
2023-02-18T01:54:34.737Z,0.90
2023-02-18T01:59:43.015Z,0.70
2023-02-18T02:04:48.030Z,0.80
2023-02-18T02:09:53.932Z,1.20
2023-02-18T02:15:18.193Z,0.60
2023-02-18T02:21:03.612Z,0.90
2023-02-18T02:26:19.301Z,0.60
2023-02-18T02:31:40.904Z,1.00
2023-02-18T02:37:09.527Z,1.10
2023-02-18T02:42:48.148Z,0.80
2023-02-18T02:48:08.320Z,1.00
2023-02-18T02:53:22.783Z,0.90
2023-02-18T02:58:26.243Z,1.10
2023-02-18T03:03:53.886Z,0.90
2023-02-18T03:09:19.553Z,1.10
2023-02-18T03:14:27.965Z,1.00
2023-02-18T03:20:12.203Z,0.90
2023-02-18T03:25:17.324Z,0.80
2023-02-18T03:30:31.594Z,0.90
2023-02-18T03:35:36.900Z,1.20
2023-02-18T03:40:40.517Z,1.80
2023-02-18T03:45:44.339Z,0.60
2023-02-18T03:50:47.671Z,1.30
2023-02-18T03:55:51.729Z,0.90
2023-02-18T04:00:55.268Z,1.00
2023-02-18T04:05:59.041Z,0.80
2023-02-18T04:11:02.518Z,1.10
2023-02-18T04:16:06.658Z,1.30
2023-02-18T04:21:11.369Z,0.80
2023-02-18T04:26:14.722Z,0.60
2023-02-18T04:31:18.231Z,1.00
2023-02-18T04:36:21.910Z,1.30
2023-02-18T04:41:25.249Z,0.70
2023-02-18T04:46:29.188Z,1.10
2023-02-18T04:51:32.580Z,1.10
2023-02-18T04:56:36.044Z,0.50
2023-02-18T05:01:39.415Z,0.80
2023-02-18T05:06:43.402Z,1.20
2023-02-18T05:11:48.027Z,0.90
2023-02-18T05:16:51.409Z,1.10
2023-02-18T05:21:54.816Z,1.50
2023-02-18T05:26:58.329Z,1.00
2023-02-18T05:32:02.155Z,0.90
2023-02-18T05:37:05.759Z,1.30
2023-02-18T05:42:09.098Z,1.70
2023-02-18T05:47:14.042Z,0.80
2023-02-18T05:52:18.331Z,1.30
2023-02-18T05:57:22.692Z,1.00
2023-02-18T06:02:26.318Z,0.90
2023-02-18T06:07:29.732Z,1.40
2023-02-18T06:12:33.110Z,1.30
2023-02-18T06:17:36.770Z,3.00
2023-02-18T06:22:40.092Z,1.90
2023-02-18T06:27:43.549Z,1.10
2023-02-18T06:32:46.982Z,2.30
2023-02-18T06:37:50.822Z,1.10
2023-02-18T06:42:54.120Z,2.30
2023-02-18T06:47:57.469Z,1.70
2023-02-18T06:53:00.943Z,1.20
2023-02-18T06:58:04.383Z,1.00
2023-02-18T07:03:08.766Z,1.00
2023-02-18T07:08:12.385Z,1.70
2023-02-18T07:13:16.130Z,1.10
2023-02-18T07:18:19.474Z,0.80
2023-02-18T07:23:22.730Z,1.00
2023-02-18T07:28:26.036Z,0.60
2023-02-18T07:33:29.326Z,1.20
2023-02-18T07:38:32.756Z,0.90
2023-02-18T07:43:36.015Z,1.10
2023-02-18T07:48:40.010Z,0.90
2023-02-18T07:53:43.780Z,1.60
2023-02-18T07:58:47.136Z,1.00
2023-02-18T08:03:50.870Z,0.80
2023-02-18T08:08:54.803Z,0.90
2023-02-18T08:13:58.150Z,1.00
2023-02-18T08:19:04.581Z,1.10
2023-02-18T08:24:08.505Z,1.90
2023-02-18T08:29:12.050Z,1.00
2023-02-18T08:34:15.399Z,1.50
2023-02-18T08:39:18.836Z,1.40
2023-02-18T08:44:22.184Z,1.60
2023-02-18T08:49:25.686Z,1.40
2023-02-18T08:54:32.118Z,1.00
2023-02-18T08:59:36.007Z,1.00
2023-02-18T09:04:39.359Z,0.90
2023-02-18T09:09:42.790Z,1.00
2023-02-18T09:14:48.395Z,1.10
2023-02-18T09:19:52.287Z,1.00
2023-02-18T09:24:55.834Z,1.30
2023-02-18T09:29:59.609Z,1.30
2023-02-18T09:35:05.820Z,1.50
2023-02-18T09:40:24.662Z,1.40
2023-02-18T09:45:29.299Z,1.00
2023-02-18T09:50:34.454Z,1.60
2023-02-18T09:55:42.345Z,1.30
2023-02-18T10:00:51.326Z,1.50
2023-02-18T10:06:01.056Z,1.40
2023-02-18T10:11:12.898Z,1.20
2023-02-18T10:16:18.881Z,1.20
2023-02-18T10:21:32.086Z,1.60
2023-02-18T10:26:42.772Z,1.40
2023-02-18T10:31:58.925Z,1.00
2023-02-18T10:37:08.840Z,0.80
2023-02-18T10:42:42.685Z,0.90
2023-02-18T10:48:04.874Z,1.40
2023-02-18T10:53:45.068Z,1.20
2023-02-18T10:58:49.448Z,1.10
2023-02-18T11:04:08.446Z,1.40
2023-02-18T11:09:27.120Z,0.90
2023-02-18T11:14:43.689Z,0.70
2023-02-18T11:20:03.274Z,1.40
2023-02-18T11:25:22.138Z,1.40
2023-02-18T11:30:39.847Z,0.90
2023-02-18T11:35:56.032Z,0.70
2023-02-18T11:41:10.235Z,1.60
2023-02-18T11:46:22.923Z,1.00
2023-02-18T11:51:38.780Z,1.10
2023-02-18T11:56:57.523Z,1.10
2023-02-18T12:02:28.963Z,1.20
2023-02-18T12:07:41.734Z,1.20
2023-02-18T12:12:57.603Z,1.00
2023-02-18T12:18:17.193Z,1.00
2023-02-18T12:23:29.442Z,1.10
2023-02-18T12:29:01.448Z,1.40
2023-02-18T12:34:17.884Z,1.10
2023-02-18T12:39:57.913Z,1.70
2023-02-18T12:45:40.346Z,1.30
2023-02-18T12:50:56.001Z,1.00
2023-02-18T12:56:00.362Z,1.30
2023-02-18T13:01:36.522Z,1.20
2023-02-18T13:06:57.678Z,0.90
2023-02-18T13:12:15.796Z,1.30
2023-02-18T13:17:21.884Z,1.20
2023-02-18T13:22:29.368Z,0.60
2023-02-18T13:27:42.254Z,1.50
2023-02-18T13:33:11.876Z,1.10
2023-02-18T13:38:59.992Z,1.10
2023-02-18T13:44:09.171Z,1.30
2023-02-18T13:49:14.200Z,1.30
2023-02-18T13:54:29.174Z,1.10
2023-02-18T13:59:44.587Z,1.40
2023-02-18T14:04:54.524Z,1.30
2023-02-18T14:10:00.757Z,1.60
2023-02-18T14:15:20.200Z,1.40
2023-02-18T14:20:29.332Z,2.40
2023-02-18T14:25:42.915Z,1.40
2023-02-18T14:30:47.657Z,1.50
2023-02-18T14:36:07.994Z,1.30
2023-02-18T14:41:15.081Z,1.30
2023-02-18T14:46:24.906Z,1.50
2023-02-18T14:51:34.289Z,2.00
2023-02-18T14:56:46.075Z,1.40
2023-02-18T15:01:56.219Z,1.20
2023-02-18T15:07:04.207Z,1.30
2023-02-18T15:12:09.950Z,1.80
2023-02-18T15:17:28.199Z,2.00
2023-02-18T15:22:36.385Z,2.00
2023-02-18T15:27:47.402Z,1.50
2023-02-18T15:32:59.552Z,1.40
2023-02-18T15:38:05.050Z,2.40
2023-02-18T15:43:10.213Z,2.30
2023-02-18T15:48:33.162Z,3.30
2023-02-18T15:53:42.865Z,2.90
2023-02-18T15:58:46.565Z,3.20
2023-02-18T16:03:50.102Z,1.70
2023-02-18T16:08:59.840Z,1.20
2023-02-18T16:14:03.741Z,2.30
2023-02-18T16:19:23.849Z,1.70
2023-02-18T16:24:33.884Z,1.30
2023-02-18T16:29:42.554Z,2.00
2023-02-18T16:34:49.356Z,2.50
2023-02-18T16:39:55.697Z,2.20
2023-02-18T16:44:59.252Z,2.10
2023-02-18T16:50:02.869Z,2.30
2023-02-18T16:55:19.311Z,2.40
2023-02-18T17:00:23.319Z,1.60
2023-02-18T17:05:30.467Z,2.30
2023-02-18T17:10:35.503Z,1.90
2023-02-18T17:15:40.238Z,2.30
2023-02-18T17:20:44.801Z,2.90
2023-02-18T17:25:50.004Z,2.40
2023-02-18T17:30:58.283Z,2.10
2023-02-18T17:36:02.072Z,2.00
2023-02-18T17:41:09.096Z,1.50
2023-02-18T17:46:15.329Z,2.10
2023-02-18T17:51:27.349Z,2.20
2023-02-18T17:56:31.051Z,2.20
2023-02-18T18:01:34.802Z,2.20
2023-02-18T18:06:38.268Z,1.70
2023-02-18T18:11:42.040Z,1.20
2023-02-18T18:16:46.626Z,1.70
2023-02-18T18:21:50.038Z,1.30
2023-02-18T18:26:53.611Z,1.60
2023-02-18T18:31:59.190Z,2.60
2023-02-18T18:37:02.701Z,1.60
2023-02-18T18:42:07.013Z,0.90
2023-02-18T18:47:10.897Z,1.80
2023-02-18T18:52:16.762Z,1.40
2023-02-18T18:57:20.359Z,1.40
2023-02-18T19:02:23.879Z,1.10
2023-02-18T19:07:27.325Z,1.00
2023-02-18T19:12:37.819Z,1.10
2023-02-18T19:17:50.515Z,1.10
2023-02-18T19:22:54.100Z,1.30
2023-02-18T19:27:58.645Z,1.20
2023-02-18T19:33:05.484Z,1.20
2023-02-18T19:38:14.664Z,1.30
2023-02-18T19:43:18.572Z,1.40
2023-02-18T19:48:24.453Z,1.30
2023-02-18T19:53:28.168Z,1.90
2023-02-18T19:58:31.610Z,1.90
2023-02-18T20:03:38.116Z,1.70
2023-02-18T20:08:41.801Z,1.10
2023-02-18T20:13:47.632Z,1.40
2023-02-18T20:18:51.730Z,1.80
2023-02-18T20:23:55.568Z,2.30
2023-02-18T20:28:59.601Z,1.70
2023-02-18T20:34:03.069Z,1.30
2023-02-18T20:39:15.789Z,4.50
2023-02-18T20:44:21.340Z,3.10
2023-02-18T20:49:24.991Z,2.10
2023-02-18T20:54:29.989Z,1.50
2023-02-18T20:59:34.090Z,1.80
2023-02-18T21:04:37.946Z,2.30
2023-02-18T21:09:41.468Z,1.60
2023-02-18T21:14:45.004Z,1.50
2023-02-18T21:19:48.905Z,2.00
2023-02-18T21:24:52.500Z,1.80
2023-02-18T21:29:59.988Z,1.60
2023-02-18T21:35:04.638Z,1.70
2023-02-18T21:40:08.615Z,1.30
2023-02-18T21:45:17.299Z,1.20
2023-02-18T21:50:21.248Z,1.20
2023-02-18T21:55:26.214Z,1.20
2023-02-18T22:00:29.867Z,1.40
2023-02-18T22:05:33.533Z,2.10
2023-02-18T22:10:42.267Z,1.20
2023-02-18T22:15:54.194Z,1.40
2023-02-18T22:20:58.209Z,1.40
2023-02-18T22:26:06.762Z,2.40
2023-02-18T22:31:12.978Z,1.70
2023-02-18T22:36:16.730Z,1.40
2023-02-18T22:41:22.670Z,1.60
2023-02-18T22:46:27.063Z,2.10
2023-02-18T22:51:33.248Z,2.20
2023-02-18T22:56:37.029Z,2.20
2023-02-18T23:01:43.773Z,1.90
2023-02-18T23:06:48.068Z,2.30
2023-02-18T23:11:58.616Z,1.60
2023-02-18T23:17:19.155Z,2.30
2023-02-18T23:22:33.806Z,2.50
2023-02-18T23:27:37.220Z,2.10
2023-02-18T23:32:40.789Z,1.60
2023-02-18T23:38:02.746Z,1.90
2023-02-18T23:43:06.088Z,1.70
2023-02-18T23:48:09.454Z,1.60
2023-02-18T23:53:12.774Z,1.60
2023-02-18T23:58:16.136Z,2.00
